sensor_id;sensor_type;location;lat;lon;timestamp;temperature;humidity
30150;DHT22;16962;48.646;9.026;2023-07-30T00:02:40;17.00;99.90
30150;DHT22;16962;48.646;9.026;2023-07-30T00:05:28;17.00;99.90
30150;DHT22;16962;48.646;9.026;2023-07-30T00:08:15;16.90;99.90
30150;DHT22;16962;48.646;9.026;2023-07-30T00:11:03;16.90;99.90
30150;DHT22;16962;48.646;9.026;2023-07-30T00:13:50;16.90;99.90
30150;DHT22;16962;48.646;9.026;2023-07-30T00:16:39;16.90;99.90
30150;DHT22;16962;48.646;9.026;2023-07-30T00:19:27;16.90;99.90
30150;DHT22;16962;48.646;9.026;2023-07-30T00:22:14;16.90;99.90
30150;DHT22;16962;48.646;9.026;2023-07-30T00:25:09;16.90;99.90
30150;DHT22;16962;48.646;9.026;2023-07-30T00:27:56;16.90;99.90
30150;DHT22;16962;48.646;9.026;2023-07-30T00:30:44;16.90;99.90
30150;DHT22;16962;48.646;9.026;2023-07-30T00:33:33;16.80;99.90
30150;DHT22;16962;48.646;9.026;2023-07-30T00:36:20;16.80;99.90
30150;DHT22;16962;48.646;9.026;2023-07-30T00:39:08;16.80;99.90
30150;DHT22;16962;48.646;9.026;2023-07-30T00:41:59;16.80;99.90
30150;DHT22;16962;48.646;9.026;2023-07-30T00:44:50;16.80;99.90
30150;DHT22;16962;48.646;9.026;2023-07-30T00:47:38;16.80;99.90
30150;DHT22;16962;48.646;9.026;2023-07-30T00:50:25;16.80;99.90
30150;DHT22;16962;48.646;9.026;2023-07-30T00:53:14;16.80;99.90
30150;DHT22;16962;48.646;9.026;2023-07-30T00:56:06;16.70;99.90
30150;DHT22;16962;48.646;9.026;2023-07-30T00:59:01;16.70;99.90
30150;DHT22;16962;48.646;9.026;2023-07-30T01:01:51;16.70;99.90
30150;DHT22;16962;48.646;9.026;2023-07-30T01:04:40;16.70;99.90
30150;DHT22;16962;48.646;9.026;2023-07-30T01:07:28;16.70;99.90
30150;DHT22;16962;48.646;9.026;2023-07-30T01:10:19;16.60;99.90
30150;DHT22;16962;48.646;9.026;2023-07-30T01:13:09;16.60;99.90
30150;DHT22;16962;48.646;9.026;2023-07-30T01:15:57;16.60;99.90
30150;DHT22;16962;48.646;9.026;2023-07-30T01:18:44;16.60;99.90
30150;DHT22;16962;48.646;9.026;2023-07-30T01:21:38;16.50;99.90
30150;DHT22;16962;48.646;9.026;2023-07-30T01:24:25;16.50;99.90
30150;DHT22;16962;48.646;9.026;2023-07-30T01:27:19;16.40;99.90
30150;DHT22;16962;48.646;9.026;2023-07-30T01:30:26;16.40;99.90
30150;DHT22;16962;48.646;9.026;2023-07-30T01:33:16;16.30;99.90
30150;DHT22;16962;48.646;9.026;2023-07-30T01:36:04;16.30;99.90
30150;DHT22;16962;48.646;9.026;2023-07-30T01:38:55;16.20;99.90
30150;DHT22;16962;48.646;9.026;2023-07-30T01:41:43;16.20;99.90
30150;DHT22;16962;48.646;9.026;2023-07-30T01:44:31;16.20;99.90
30150;DHT22;16962;48.646;9.026;2023-07-30T01:47:19;16.20;99.90
30150;DHT22;16962;48.646;9.026;2023-07-30T01:50:10;16.20;99.90
30150;DHT22;16962;48.646;9.026;2023-07-30T01:52:58;16.00;99.90
30150;DHT22;16962;48.646;9.026;2023-07-30T01:55:48;16.00;99.90
30150;DHT22;16962;48.646;9.026;2023-07-30T01:58:35;16.00;99.90
30150;DHT22;16962;48.646;9.026;2023-07-30T02:01:22;16.00;99.90
30150;DHT22;16962;48.646;9.026;2023-07-30T02:04:10;16.00;99.90
30150;DHT22;16962;48.646;9.026;2023-07-30T02:06:58;16.00;99.90
30150;DHT22;16962;48.646;9.026;2023-07-30T02:09:45;15.90;99.90
30150;DHT22;16962;48.646;9.026;2023-07-30T02:12:32;15.90;99.90
30150;DHT22;16962;48.646;9.026;2023-07-30T02:15:19;15.80;99.90
30150;DHT22;16962;48.646;9.026;2023-07-30T02:18:06;15.80;99.90
30150;DHT22;16962;48.646;9.026;2023-07-30T02:20:57;15.70;99.90
30150;DHT22;16962;48.646;9.026;2023-07-30T02:23:46;15.80;99.90
30150;DHT22;16962;48.646;9.026;2023-07-30T02:26:36;15.80;99.90
30150;DHT22;16962;48.646;9.026;2023-07-30T02:29:24;15.80;99.90
30150;DHT22;16962;48.646;9.026;2023-07-30T02:32:12;15.90;99.90
30150;DHT22;16962;48.646;9.026;2023-07-30T02:34:59;16.00;99.90
30150;DHT22;16962;48.646;9.026;2023-07-30T02:37:52;16.00;99.90
30150;DHT22;16962;48.646;9.026;2023-07-30T02:40:41;16.00;99.90
30150;DHT22;16962;48.646;9.026;2023-07-30T02:43:28;16.00;99.90
30150;DHT22;16962;48.646;9.026;2023-07-30T02:46:16;16.00;99.90
30150;DHT22;16962;48.646;9.026;2023-07-30T02:49:05;15.90;99.90
30150;DHT22;16962;48.646;9.026;2023-07-30T02:51:53;15.90;99.90
30150;DHT22;16962;48.646;9.026;2023-07-30T02:54:40;15.90;99.90
30150;DHT22;16962;48.646;9.026;2023-07-30T02:57:27;16.00;99.90
30150;DHT22;16962;48.646;9.026;2023-07-30T03:00:19;16.00;99.90
30150;DHT22;16962;48.646;9.026;2023-07-30T03:03:06;16.00;99.90
30150;DHT22;16962;48.646;9.026;2023-07-30T03:05:56;16.00;99.90
30150;DHT22;16962;48.646;9.026;2023-07-30T03:08:45;16.00;99.90
30150;DHT22;16962;48.646;9.026;2023-07-30T03:11:33;16.00;99.90
30150;DHT22;16962;48.646;9.026;2023-07-30T03:14:21;16.00;99.90
30150;DHT22;16962;48.646;9.026;2023-07-30T03:17:08;16.10;99.90
30150;DHT22;16962;48.646;9.026;2023-07-30T03:19:55;16.10;99.90
30150;DHT22;16962;48.646;9.026;2023-07-30T03:22:43;16.10;99.90
30150;DHT22;16962;48.646;9.026;2023-07-30T03:25:33;16.10;99.90
30150;DHT22;16962;48.646;9.026;2023-07-30T03:28:23;16.20;99.90
30150;DHT22;16962;48.646;9.026;2023-07-30T03:31:11;16.10;99.90
30150;DHT22;16962;48.646;9.026;2023-07-30T03:33:59;16.20;99.90
30150;DHT22;16962;48.646;9.026;2023-07-30T03:36:46;16.10;99.90
30150;DHT22;16962;48.646;9.026;2023-07-30T03:39:33;16.10;99.90
30150;DHT22;16962;48.646;9.026;2023-07-30T03:42:21;16.20;99.90
30150;DHT22;16962;48.646;9.026;2023-07-30T03:45:14;16.20;99.90
30150;DHT22;16962;48.646;9.026;2023-07-30T03:48:01;16.10;99.90
30150;DHT22;16962;48.646;9.026;2023-07-30T03:50:50;16.10;99.90
30150;DHT22;16962;48.646;9.026;2023-07-30T03:53:39;16.10;99.90
30150;DHT22;16962;48.646;9.026;2023-07-30T03:56:28;16.10;99.90
30150;DHT22;16962;48.646;9.026;2023-07-30T03:59:15;16.10;99.90
30150;DHT22;16962;48.646;9.026;2023-07-30T04:02:39;16.10;99.90
30150;DHT22;16962;48.646;9.026;2023-07-30T04:05:48;16.10;99.90
30150;DHT22;16962;48.646;9.026;2023-07-30T04:08:35;16.10;99.90
30150;DHT22;16962;48.646;9.026;2023-07-30T04:11:23;16.10;99.90
30150;DHT22;16962;48.646;9.026;2023-07-30T04:14:10;16.10;99.90
30150;DHT22;16962;48.646;9.026;2023-07-30T04:16:57;16.10;99.90
30150;DHT22;16962;48.646;9.026;2023-07-30T04:19:45;16.00;99.90
30150;DHT22;16962;48.646;9.026;2023-07-30T04:22:32;16.00;99.90
30150;DHT22;16962;48.646;9.026;2023-07-30T04:25:22;16.00;99.90
30150;DHT22;16962;48.646;9.026;2023-07-30T04:28:09;16.00;99.90
30150;DHT22;16962;48.646;9.026;2023-07-30T04:30:56;16.10;99.90
30150;DHT22;16962;48.646;9.026;2023-07-30T04:33:44;16.10;99.90
30150;DHT22;16962;48.646;9.026;2023-07-30T04:36:33;16.10;99.90
30150;DHT22;16962;48.646;9.026;2023-07-30T04:39:21;16.10;99.90
30150;DHT22;16962;48.646;9.026;2023-07-30T04:42:08;16.00;99.90
30150;DHT22;16962;48.646;9.026;2023-07-30T04:44:55;16.10;99.90
30150;DHT22;16962;48.646;9.026;2023-07-30T04:47:43;16.00;99.90
30150;DHT22;16962;48.646;9.026;2023-07-30T04:50:33;16.00;99.90
30150;DHT22;16962;48.646;9.026;2023-07-30T04:53:21;16.10;99.90
30150;DHT22;16962;48.646;9.026;2023-07-30T04:56:08;16.10;99.90
30150;DHT22;16962;48.646;9.026;2023-07-30T04:58:58;16.10;99.90
30150;DHT22;16962;48.646;9.026;2023-07-30T05:01:45;16.20;99.90
30150;DHT22;16962;48.646;9.026;2023-07-30T05:04:34;16.20;99.90
30150;DHT22;16962;48.646;9.026;2023-07-30T05:07:22;16.20;99.90
30150;DHT22;16962;48.646;9.026;2023-07-30T05:10:09;16.20;99.90
30150;DHT22;16962;48.646;9.026;2023-07-30T05:12:57;16.30;99.90
30150;DHT22;16962;48.646;9.026;2023-07-30T05:15:45;16.30;99.90
30150;DHT22;16962;48.646;9.026;2023-07-30T05:18:32;16.40;99.90
30150;DHT22;16962;48.646;9.026;2023-07-30T05:21:19;16.40;99.90
30150;DHT22;16962;48.646;9.026;2023-07-30T05:24:09;16.40;99.90
30150;DHT22;16962;48.646;9.026;2023-07-30T05:26:56;16.40;99.90
30150;DHT22;16962;48.646;9.026;2023-07-30T05:29:43;16.30;99.90
30150;DHT22;16962;48.646;9.026;2023-07-30T05:32:35;16.30;99.90
30150;DHT22;16962;48.646;9.026;2023-07-30T05:35:22;16.30;99.90
30150;DHT22;16962;48.646;9.026;2023-07-30T05:38:14;16.20;99.90
30150;DHT22;16962;48.646;9.026;2023-07-30T05:41:01;16.20;99.90
30150;DHT22;16962;48.646;9.026;2023-07-30T05:43:49;16.20;99.90
30150;DHT22;16962;48.646;9.026;2023-07-30T05:46:36;16.20;99.90
30150;DHT22;16962;48.646;9.026;2023-07-30T05:49:24;16.30;99.90
30150;DHT22;16962;48.646;9.026;2023-07-30T05:52:12;16.40;99.90
30150;DHT22;16962;48.646;9.026;2023-07-30T05:54:59;16.40;99.90
30150;DHT22;16962;48.646;9.026;2023-07-30T05:57:47;16.30;99.90
30150;DHT22;16962;48.646;9.026;2023-07-30T06:00:35;16.40;99.90
30150;DHT22;16962;48.646;9.026;2023-07-30T06:03:22;16.40;99.90
30150;DHT22;16962;48.646;9.026;2023-07-30T06:06:10;16.40;99.90
30150;DHT22;16962;48.646;9.026;2023-07-30T06:08:57;16.40;99.90
30150;DHT22;16962;48.646;9.026;2023-07-30T06:11:46;16.40;99.90
30150;DHT22;16962;48.646;9.026;2023-07-30T06:14:33;16.50;99.90
30150;DHT22;16962;48.646;9.026;2023-07-30T06:17:20;16.60;99.90
30150;DHT22;16962;48.646;9.026;2023-07-30T06:20:08;16.60;99.90
30150;DHT22;16962;48.646;9.026;2023-07-30T06:22:58;16.80;99.90
30150;DHT22;16962;48.646;9.026;2023-07-30T06:25:45;16.80;99.90
30150;DHT22;16962;48.646;9.026;2023-07-30T06:28:32;16.90;99.90
30150;DHT22;16962;48.646;9.026;2023-07-30T06:31:20;17.10;99.90
30150;DHT22;16962;48.646;9.026;2023-07-30T06:34:07;17.10;99.90
30150;DHT22;16962;48.646;9.026;2023-07-30T06:36:54;17.10;99.90
30150;DHT22;16962;48.646;9.026;2023-07-30T06:39:44;17.10;99.90
30150;DHT22;16962;48.646;9.026;2023-07-30T06:42:32;17.30;99.90
30150;DHT22;16962;48.646;9.026;2023-07-30T06:45:26;17.30;99.90
30150;DHT22;16962;48.646;9.026;2023-07-30T06:48:16;17.50;99.90
30150;DHT22;16962;48.646;9.026;2023-07-30T06:51:06;17.70;99.90
30150;DHT22;16962;48.646;9.026;2023-07-30T06:53:54;17.80;99.90
30150;DHT22;16962;48.646;9.026;2023-07-30T06:56:41;17.90;99.90
30150;DHT22;16962;48.646;9.026;2023-07-30T06:59:33;17.90;99.90
30150;DHT22;16962;48.646;9.026;2023-07-30T07:02:21;17.90;99.90
30150;DHT22;16962;48.646;9.026;2023-07-30T07:05:08;17.80;99.90
30150;DHT22;16962;48.646;9.026;2023-07-30T07:07:57;17.60;99.90
30150;DHT22;16962;48.646;9.026;2023-07-30T07:10:46;17.50;99.90
30150;DHT22;16962;48.646;9.026;2023-07-30T07:13:34;17.30;99.90
30150;DHT22;16962;48.646;9.026;2023-07-30T07:16:21;17.20;99.90
30150;DHT22;16962;48.646;9.026;2023-07-30T07:19:11;17.10;99.90
30150;DHT22;16962;48.646;9.026;2023-07-30T07:21:58;17.00;99.90
30150;DHT22;16962;48.646;9.026;2023-07-30T07:24:46;16.80;99.90
30150;DHT22;16962;48.646;9.026;2023-07-30T07:27:33;16.60;99.90
30150;DHT22;16962;48.646;9.026;2023-07-30T07:30:23;16.60;99.90
30150;DHT22;16962;48.646;9.026;2023-07-30T07:33:11;16.70;99.90
30150;DHT22;16962;48.646;9.026;2023-07-30T07:36:07;16.70;99.90
30150;DHT22;16962;48.646;9.026;2023-07-30T07:38:55;16.90;99.90
30150;DHT22;16962;48.646;9.026;2023-07-30T07:41:42;17.00;99.90
30150;DHT22;16962;48.646;9.026;2023-07-30T07:44:30;17.00;99.90
30150;DHT22;16962;48.646;9.026;2023-07-30T07:47:17;17.10;99.90
30150;DHT22;16962;48.646;9.026;2023-07-30T07:50:05;17.10;99.90
30150;DHT22;16962;48.646;9.026;2023-07-30T07:52:53;17.20;99.90
30150;DHT22;16962;48.646;9.026;2023-07-30T07:55:40;17.40;99.90
30150;DHT22;16962;48.646;9.026;2023-07-30T07:58:27;17.50;99.90
30150;DHT22;16962;48.646;9.026;2023-07-30T08:01:17;17.60;99.90
30150;DHT22;16962;48.646;9.026;2023-07-30T08:04:05;17.70;99.90
30150;DHT22;16962;48.646;9.026;2023-07-30T08:06:52;17.80;99.90
30150;DHT22;16962;48.646;9.026;2023-07-30T08:09:40;17.90;99.90
30150;DHT22;16962;48.646;9.026;2023-07-30T08:12:32;18.10;99.90
30150;DHT22;16962;48.646;9.026;2023-07-30T08:15:20;18.50;99.90
30150;DHT22;16962;48.646;9.026;2023-07-30T08:18:07;18.80;99.90
30150;DHT22;16962;48.646;9.026;2023-07-30T08:20:55;19.70;99.90
30150;DHT22;16962;48.646;9.026;2023-07-30T08:23:43;20.00;99.90
30150;DHT22;16962;48.646;9.026;2023-07-30T08:26:31;20.40;99.90
30150;DHT22;16962;48.646;9.026;2023-07-30T08:29:21;20.60;27.10
30150;DHT22;16962;48.646;9.026;2023-07-30T08:32:09;20.90;1.00
30150;DHT22;16962;48.646;9.026;2023-07-30T08:34:56;20.70;99.90
30150;DHT22;16962;48.646;9.026;2023-07-30T08:37:43;20.80;99.90
30150;DHT22;16962;48.646;9.026;2023-07-30T08:40:31;21.10;99.90
30150;DHT22;16962;48.646;9.026;2023-07-30T08:43:19;21.20;1.00
30150;DHT22;16962;48.646;9.026;2023-07-30T08:46:09;21.10;1.00
30150;DHT22;16962;48.646;9.026;2023-07-30T08:48:57;21.10;99.90
30150;DHT22;16962;48.646;9.026;2023-07-30T08:51:46;21.50;99.90
30150;DHT22;16962;48.646;9.026;2023-07-30T08:54:37;22.10;99.90
30150;DHT22;16962;48.646;9.026;2023-07-30T08:57:26;22.40;4.40
30150;DHT22;16962;48.646;9.026;2023-07-30T09:00:17;22.50;99.90
30150;DHT22;16962;48.646;9.026;2023-07-30T09:03:06;22.80;99.90
30150;DHT22;16962;48.646;9.026;2023-07-30T09:05:56;23.00;99.90
30150;DHT22;16962;48.646;9.026;2023-07-30T09:08:43;22.80;99.90
30150;DHT22;16962;48.646;9.026;2023-07-30T09:11:33;22.00;99.90
30150;DHT22;16962;48.646;9.026;2023-07-30T09:14:21;21.30;99.90
30150;DHT22;16962;48.646;9.026;2023-07-30T09:17:09;20.80;99.90
30150;DHT22;16962;48.646;9.026;2023-07-30T09:19:58;20.20;99.90
30150;DHT22;16962;48.646;9.026;2023-07-30T09:22:45;19.80;99.90
30150;DHT22;16962;48.646;9.026;2023-07-30T09:25:37;19.40;1.00
30150;DHT22;16962;48.646;9.026;2023-07-30T09:33:49;18.20;99.90
30150;DHT22;16962;48.646;9.026;2023-07-30T09:36:36;17.70;1.00
30150;DHT22;16962;48.646;9.026;2023-07-30T09:39:25;17.30;1.00
30150;DHT22;16962;48.646;9.026;2023-07-30T09:42:12;17.20;1.00
30150;DHT22;16962;48.646;9.026;2023-07-30T09:45:00;17.20;81.30
30150;DHT22;16962;48.646;9.026;2023-07-30T09:47:48;17.20;99.90
30150;DHT22;16962;48.646;9.026;2023-07-30T09:50:37;17.30;99.90
30150;DHT22;16962;48.646;9.026;2023-07-30T09:53:26;17.40;99.90
30150;DHT22;16962;48.646;9.026;2023-07-30T09:56:13;17.60;1.00
30150;DHT22;16962;48.646;9.026;2023-07-30T09:59:01;17.90;99.90
30150;DHT22;16962;48.646;9.026;2023-07-30T10:01:49;18.30;99.90
30150;DHT22;16962;48.646;9.026;2023-07-30T10:04:43;19.00;1.00
30150;DHT22;16962;48.646;9.026;2023-07-30T10:07:30;20.00;99.90
30150;DHT22;16962;48.646;9.026;2023-07-30T10:10:18;20.50;99.90
30150;DHT22;16962;48.646;9.026;2023-07-30T10:13:09;21.10;99.90
30150;DHT22;16962;48.646;9.026;2023-07-30T10:15:58;21.30;1.00
30150;DHT22;16962;48.646;9.026;2023-07-30T10:18:46;21.80;99.90
30150;DHT22;16962;48.646;9.026;2023-07-30T10:21:42;22.30;99.90
30150;DHT22;16962;48.646;9.026;2023-07-30T10:24:30;23.00;36.20
30150;DHT22;16962;48.646;9.026;2023-07-30T10:27:23;22.90;1.00
30150;DHT22;16962;48.646;9.026;2023-07-30T10:30:15;22.90;1.00
30150;DHT22;16962;48.646;9.026;2023-07-30T10:33:06;22.40;1.00
30150;DHT22;16962;48.646;9.026;2023-07-30T10:35:59;22.10;1.00
30150;DHT22;16962;48.646;9.026;2023-07-30T10:38:51;21.70;1.00
30150;DHT22;16962;48.646;9.026;2023-07-30T10:41:53;21.70;1.00
30150;DHT22;16962;48.646;9.026;2023-07-30T10:44:43;22.00;1.00
30150;DHT22;16962;48.646;9.026;2023-07-30T10:47:34;22.10;99.90
30150;DHT22;16962;48.646;9.026;2023-07-30T10:50:26;22.00;1.00
30150;DHT22;16962;48.646;9.026;2023-07-30T10:53:19;22.70;99.90
30150;DHT22;16962;48.646;9.026;2023-07-30T10:56:07;22.90;99.90
30150;DHT22;16962;48.646;9.026;2023-07-30T10:58:55;23.10;99.90
30150;DHT22;16962;48.646;9.026;2023-07-30T11:01:44;22.80;99.90
30150;DHT22;16962;48.646;9.026;2023-07-30T11:04:34;22.50;99.90
30150;DHT22;16962;48.646;9.026;2023-07-30T11:07:22;22.00;99.90
30150;DHT22;16962;48.646;9.026;2023-07-30T11:10:09;22.00;99.90
30150;DHT22;16962;48.646;9.026;2023-07-30T11:12:57;23.10;99.90
30150;DHT22;16962;48.646;9.026;2023-07-30T11:15:47;24.20;99.90
30150;DHT22;16962;48.646;9.026;2023-07-30T11:18:40;24.40;99.90
30150;DHT22;16962;48.646;9.026;2023-07-30T11:21:28;24.50;99.90
30150;DHT22;16962;48.646;9.026;2023-07-30T11:24:16;24.90;99.90
30150;DHT22;16962;48.646;9.026;2023-07-30T11:27:06;25.30;99.90
30150;DHT22;16962;48.646;9.026;2023-07-30T11:29:57;26.00;99.90
30150;DHT22;16962;48.646;9.026;2023-07-30T11:32:52;26.50;99.90
30150;DHT22;16962;48.646;9.026;2023-07-30T11:35:42;27.20;99.90
30150;DHT22;16962;48.646;9.026;2023-07-30T11:38:33;26.20;99.90
30150;DHT22;16962;48.646;9.026;2023-07-30T11:41:20;26.00;99.90
30150;DHT22;16962;48.646;9.026;2023-07-30T11:44:29;26.50;99.90
30150;DHT22;16962;48.646;9.026;2023-07-30T11:47:23;26.50;99.90
30150;DHT22;16962;48.646;9.026;2023-07-30T11:50:15;26.30;99.90
30150;DHT22;16962;48.646;9.026;2023-07-30T11:53:04;25.90;99.90
30150;DHT22;16962;48.646;9.026;2023-07-30T11:55:52;25.90;99.90
30150;DHT22;16962;48.646;9.026;2023-07-30T11:58:41;26.70;99.90
30150;DHT22;16962;48.646;9.026;2023-07-30T12:01:35;27.30;99.90
30150;DHT22;16962;48.646;9.026;2023-07-30T12:04:24;27.10;99.90
30150;DHT22;16962;48.646;9.026;2023-07-30T12:07:24;25.90;99.90
30150;DHT22;16962;48.646;9.026;2023-07-30T12:10:12;25.80;99.90
30150;DHT22;16962;48.646;9.026;2023-07-30T12:13:00;25.50;99.90
30150;DHT22;16962;48.646;9.026;2023-07-30T12:15:55;25.00;99.90
30150;DHT22;16962;48.646;9.026;2023-07-30T12:18:45;25.40;99.90
30150;DHT22;16962;48.646;9.026;2023-07-30T12:21:35;26.00;99.90
30150;DHT22;16962;48.646;9.026;2023-07-30T12:24:25;25.80;99.90
30150;DHT22;16962;48.646;9.026;2023-07-30T12:27:13;25.70;99.90
30150;DHT22;16962;48.646;9.026;2023-07-30T12:30:00;25.60;99.90
30150;DHT22;16962;48.646;9.026;2023-07-30T12:32:48;25.30;99.90
30150;DHT22;16962;48.646;9.026;2023-07-30T12:35:35;24.90;99.90
30150;DHT22;16962;48.646;9.026;2023-07-30T12:38:23;24.80;99.90
30150;DHT22;16962;48.646;9.026;2023-07-30T12:41:13;26.00;99.90
30150;DHT22;16962;48.646;9.026;2023-07-30T12:44:00;26.30;99.90
30150;DHT22;16962;48.646;9.026;2023-07-30T12:46:47;25.50;99.90
30150;DHT22;16962;48.646;9.026;2023-07-30T12:49:35;24.30;99.90
30150;DHT22;16962;48.646;9.026;2023-07-30T12:52:25;23.40;99.90
30150;DHT22;16962;48.646;9.026;2023-07-30T12:55:12;23.60;99.90
30150;DHT22;16962;48.646;9.026;2023-07-30T12:58:01;23.90;99.90
30150;DHT22;16962;48.646;9.026;2023-07-30T13:00:52;23.60;99.90
30150;DHT22;16962;48.646;9.026;2023-07-30T13:03:40;23.60;99.90
30150;DHT22;16962;48.646;9.026;2023-07-30T13:06:32;24.70;99.90
30150;DHT22;16962;48.646;9.026;2023-07-30T13:09:20;25.60;99.90
30150;DHT22;16962;48.646;9.026;2023-07-30T13:12:08;26.70;99.90
30150;DHT22;16962;48.646;9.026;2023-07-30T13:14:56;26.80;99.90
30150;DHT22;16962;48.646;9.026;2023-07-30T13:17:44;26.30;92.10
30150;DHT22;16962;48.646;9.026;2023-07-30T13:20:31;25.20;99.90
30150;DHT22;16962;48.646;9.026;2023-07-30T13:23:19;24.20;99.90
30150;DHT22;16962;48.646;9.026;2023-07-30T13:26:09;24.40;99.90
30150;DHT22;16962;48.646;9.026;2023-07-30T13:28:59;23.50;99.90
30150;DHT22;16962;48.646;9.026;2023-07-30T13:31:48;23.00;99.80
30150;DHT22;16962;48.646;9.026;2023-07-30T13:34:35;23.10;99.90
30150;DHT22;16962;48.646;9.026;2023-07-30T13:37:25;23.20;99.90
30150;DHT22;16962;48.646;9.026;2023-07-30T13:40:13;24.10;99.90
30150;DHT22;16962;48.646;9.026;2023-07-30T13:43:00;25.20;99.90
30150;DHT22;16962;48.646;9.026;2023-07-30T13:45:49;26.30;99.90
30150;DHT22;16962;48.646;9.026;2023-07-30T13:48:37;27.20;85.10
30150;DHT22;16962;48.646;9.026;2023-07-30T13:51:24;25.80;91.40
30150;DHT22;16962;48.646;9.026;2023-07-30T13:54:14;26.40;80.80
30150;DHT22;16962;48.646;9.026;2023-07-30T13:57:05;26.90;92.50
30150;DHT22;16962;48.646;9.026;2023-07-30T13:59:55;27.20;72.70
30150;DHT22;16962;48.646;9.026;2023-07-30T14:02:43;26.90;59.80
30150;DHT22;16962;48.646;9.026;2023-07-30T14:05:33;26.70;99.90
30150;DHT22;16962;48.646;9.026;2023-07-30T14:08:21;27.30;99.90
30150;DHT22;16962;48.646;9.026;2023-07-30T14:11:14;27.90;62.30
30150;DHT22;16962;48.646;9.026;2023-07-30T14:14:08;27.70;46.00
30150;DHT22;16962;48.646;9.026;2023-07-30T14:16:55;27.90;29.30
30150;DHT22;16962;48.646;9.026;2023-07-30T14:19:45;26.60;58.10
30150;DHT22;16962;48.646;9.026;2023-07-30T14:22:38;26.50;97.10
30150;DHT22;16962;48.646;9.026;2023-07-30T14:25:25;27.10;99.90
30150;DHT22;16962;48.646;9.026;2023-07-30T14:28:12;26.50;67.00
30150;DHT22;16962;48.646;9.026;2023-07-30T14:31:01;26.30;52.20
30150;DHT22;16962;48.646;9.026;2023-07-30T14:33:49;26.30;46.20
30150;DHT22;16962;48.646;9.026;2023-07-30T14:36:36;25.80;33.40
30150;DHT22;16962;48.646;9.026;2023-07-30T14:39:24;26.80;34.70
30150;DHT22;16962;48.646;9.026;2023-07-30T14:42:14;27.40;46.00
30150;DHT22;16962;48.646;9.026;2023-07-30T14:45:01;28.30;20.80
30150;DHT22;16962;48.646;9.026;2023-07-30T14:47:50;28.80;24.20
30150;DHT22;16962;48.646;9.026;2023-07-30T14:50:37;28.50;19.80
30150;DHT22;16962;48.646;9.026;2023-07-30T14:53:25;27.30;14.90
30150;DHT22;16962;48.646;9.026;2023-07-30T14:56:12;27.20;30.70
30150;DHT22;16962;48.646;9.026;2023-07-30T14:59:01;26.90;17.70
30150;DHT22;16962;48.646;9.026;2023-07-30T15:01:49;26.30;16.10
30150;DHT22;16962;48.646;9.026;2023-07-30T15:04:39;25.80;9.30
30150;DHT22;16962;48.646;9.026;2023-07-30T15:07:26;25.50;10.30
30150;DHT22;16962;48.646;9.026;2023-07-30T15:10:15;25.50;10.80
30150;DHT22;16962;48.646;9.026;2023-07-30T15:13:04;26.10;14.30
30150;DHT22;16962;48.646;9.026;2023-07-30T15:15:51;26.90;13.20
30150;DHT22;16962;48.646;9.026;2023-07-30T15:18:41;27.30;7.50
30150;DHT22;16962;48.646;9.026;2023-07-30T15:21:32;26.90;9.20
30150;DHT22;16962;48.646;9.026;2023-07-30T15:24:19;26.50;7.70
30150;DHT22;16962;48.646;9.026;2023-07-30T15:27:07;26.40;12.00
30150;DHT22;16962;48.646;9.026;2023-07-30T15:29:54;26.20;11.50
30150;DHT22;16962;48.646;9.026;2023-07-30T15:32:43;26.20;5.30
30150;DHT22;16962;48.646;9.026;2023-07-30T15:35:31;25.80;1.10
30150;DHT22;16962;48.646;9.026;2023-07-30T15:38:21;25.30;1.00
30150;DHT22;16962;48.646;9.026;2023-07-30T15:41:16;25.30;8.40
30150;DHT22;16962;48.646;9.026;2023-07-30T15:44:06;24.90;8.80
30150;DHT22;16962;48.646;9.026;2023-07-30T15:46:56;24.30;1.00
30150;DHT22;16962;48.646;9.026;2023-07-30T15:49:43;24.60;1.00
30150;DHT22;16962;48.646;9.026;2023-07-30T15:52:31;25.30;1.00
30150;DHT22;16962;48.646;9.026;2023-07-30T15:55:23;25.30;1.00
30150;DHT22;16962;48.646;9.026;2023-07-30T15:58:10;25.70;5.70
30150;DHT22;16962;48.646;9.026;2023-07-30T16:00:58;25.50;12.90
30150;DHT22;16962;48.646;9.026;2023-07-30T16:03:49;25.40;19.60
30150;DHT22;16962;48.646;9.026;2023-07-30T16:06:37;25.70;20.00
30150;DHT22;16962;48.646;9.026;2023-07-30T16:09:24;26.10;10.90
30150;DHT22;16962;48.646;9.026;2023-07-30T16:12:12;26.00;1.00
30150;DHT22;16962;48.646;9.026;2023-07-30T16:15:00;25.00;1.00
30150;DHT22;16962;48.646;9.026;2023-07-30T16:17:48;23.90;1.00
30150;DHT22;16962;48.646;9.026;2023-07-30T16:20:38;23.20;1.00
30150;DHT22;16962;48.646;9.026;2023-07-30T16:23:27;22.30;1.00
30150;DHT22;16962;48.646;9.026;2023-07-30T16:26:15;22.00;3.70
30150;DHT22;16962;48.646;9.026;2023-07-30T16:29:04;22.40;1.00
30150;DHT22;16962;48.646;9.026;2023-07-30T16:31:55;22.40;1.30
30150;DHT22;16962;48.646;9.026;2023-07-30T16:34:42;22.40;1.80
30150;DHT22;16962;48.646;9.026;2023-07-30T16:37:30;22.20;4.60
30150;DHT22;16962;48.646;9.026;2023-07-30T16:40:19;21.80;2.10
30150;DHT22;16962;48.646;9.026;2023-07-30T16:43:11;21.20;2.10
30150;DHT22;16962;48.646;9.026;2023-07-30T16:45:59;20.60;1.90
30150;DHT22;16962;48.646;9.026;2023-07-30T16:48:50;20.40;1.00
30150;DHT22;16962;48.646;9.026;2023-07-30T16:51:38;20.30;1.00
30150;DHT22;16962;48.646;9.026;2023-07-30T16:54:25;20.40;2.40
30150;DHT22;16962;48.646;9.026;2023-07-30T16:57:12;20.40;7.70
30150;DHT22;16962;48.646;9.026;2023-07-30T17:00:00;20.40;4.50
30150;DHT22;16962;48.646;9.026;2023-07-30T17:02:48;20.40;7.00
30150;DHT22;16962;48.646;9.026;2023-07-30T17:05:35;20.30;9.20
30150;DHT22;16962;48.646;9.026;2023-07-30T17:08:30;20.40;11.30
30150;DHT22;16962;48.646;9.026;2023-07-30T17:11:20;20.40;21.30
30150;DHT22;16962;48.646;9.026;2023-07-30T17:14:09;20.50;15.70
30150;DHT22;16962;48.646;9.026;2023-07-30T17:16:57;20.60;22.30
30150;DHT22;16962;48.646;9.026;2023-07-30T17:19:51;20.40;20.90
30150;DHT22;16962;48.646;9.026;2023-07-30T17:22:42;20.20;13.50
30150;DHT22;16962;48.646;9.026;2023-07-30T17:25:29;20.00;7.20
30150;DHT22;16962;48.646;9.026;2023-07-30T17:28:19;19.80;7.00
30150;DHT22;16962;48.646;9.026;2023-07-30T17:31:10;19.60;10.80
30150;DHT22;16962;48.646;9.026;2023-07-30T17:33:58;19.50;18.50
30150;DHT22;16962;48.646;9.026;2023-07-30T17:36:48;19.50;1.00
30150;DHT22;16962;48.646;9.026;2023-07-30T17:39:36;19.30;9.20
30150;DHT22;16962;48.646;9.026;2023-07-30T17:42:24;19.30;9.70
30150;DHT22;16962;48.646;9.026;2023-07-30T17:45:16;19.20;18.30
30150;DHT22;16962;48.646;9.026;2023-07-30T17:48:04;19.10;8.70
30150;DHT22;16962;48.646;9.026;2023-07-30T17:50:52;19.00;10.20
30150;DHT22;16962;48.646;9.026;2023-07-30T17:53:40;19.00;13.50
30150;DHT22;16962;48.646;9.026;2023-07-30T17:56:30;19.00;9.70